sensor_id;sensor_type;location;lat;lon;timestamp;P1;durP1;ratioP1;P2;durP2;ratioP2
11386;SDS011;5748;53.102;8.456;2022-12-18T00:02:55;10.73;;;7.50;;
11386;SDS011;5748;53.102;8.456;2022-12-18T00:05:22;10.70;;;7.60;;
11386;SDS011;5748;53.102;8.456;2022-12-18T00:07:49;12.53;;;7.63;;
11386;SDS011;5748;53.102;8.456;2022-12-18T00:10:17;11.80;;;7.53;;
11386;SDS011;5748;53.102;8.456;2022-12-18T00:12:44;11.23;;;7.80;;
11386;SDS011;5748;53.102;8.456;2022-12-18T00:15:11;10.07;;;7.07;;
11386;SDS011;5748;53.102;8.456;2022-12-18T00:17:39;11.23;;;7.90;;
11386;SDS011;5748;53.102;8.456;2022-12-18T00:20:06;10.03;;;7.57;;
11386;SDS011;5748;53.102;8.456;2022-12-18T00:22:35;10.03;;;7.33;;
11386;SDS011;5748;53.102;8.456;2022-12-18T00:25:02;8.97;;;6.87;;
11386;SDS011;5748;53.102;8.456;2022-12-18T00:27:31;11.20;;;7.50;;
11386;SDS011;5748;53.102;8.456;2022-12-18T00:32:29;10.07;;;6.97;;
11386;SDS011;5748;53.102;8.456;2022-12-18T00:34:56;9.10;;;7.07;;
11386;SDS011;5748;53.102;8.456;2022-12-18T00:37:23;10.47;;;7.80;;
11386;SDS011;5748;53.102;8.456;2022-12-18T00:39:50;11.30;;;7.20;;
11386;SDS011;5748;53.102;8.456;2022-12-18T00:42:17;12.00;;;7.63;;
11386;SDS011;5748;53.102;8.456;2022-12-18T00:45:04;9.87;;;7.50;;
11386;SDS011;5748;53.102;8.456;2022-12-18T00:47:32;11.90;;;7.87;;
11386;SDS011;5748;53.102;8.456;2022-12-18T00:49:59;11.30;;;8.10;;
11386;SDS011;5748;53.102;8.456;2022-12-18T00:52:26;11.37;;;8.33;;
11386;SDS011;5748;53.102;8.456;2022-12-18T00:54:53;11.20;;;8.10;;
11386;SDS011;5748;53.102;8.456;2022-12-18T00:57:19;12.20;;;7.93;;
11386;SDS011;5748;53.102;8.456;2022-12-18T00:59:46;11.23;;;8.10;;
11386;SDS011;5748;53.102;8.456;2022-12-18T01:02:15;11.53;;;7.87;;
11386;SDS011;5748;53.102;8.456;2022-12-18T01:04:42;10.57;;;7.50;;
11386;SDS011;5748;53.102;8.456;2022-12-18T01:07:09;10.37;;;7.23;;
11386;SDS011;5748;53.102;8.456;2022-12-18T01:09:36;11.00;;;7.23;;
11386;SDS011;5748;53.102;8.456;2022-12-18T01:12:03;10.13;;;7.63;;
11386;SDS011;5748;53.102;8.456;2022-12-18T01:14:32;10.87;;;7.47;;
11386;SDS011;5748;53.102;8.456;2022-12-18T01:16:59;8.90;;;6.93;;
11386;SDS011;5748;53.102;8.456;2022-12-18T01:19:29;10.73;;;7.60;;
11386;SDS011;5748;53.102;8.456;2022-12-18T01:21:56;9.43;;;6.73;;
11386;SDS011;5748;53.102;8.456;2022-12-18T01:24:23;10.17;;;7.20;;
11386;SDS011;5748;53.102;8.456;2022-12-18T01:26:51;10.57;;;7.47;;
11386;SDS011;5748;53.102;8.456;2022-12-18T01:29:18;10.90;;;7.70;;
11386;SDS011;5748;53.102;8.456;2022-12-18T01:31:45;10.30;;;7.00;;
11386;SDS011;5748;53.102;8.456;2022-12-18T01:34:12;10.27;;;7.03;;
11386;SDS011;5748;53.102;8.456;2022-12-18T01:36:40;9.70;;;7.13;;
11386;SDS011;5748;53.102;8.456;2022-12-18T01:39:09;10.33;;;7.43;;
11386;SDS011;5748;53.102;8.456;2022-12-18T01:41:40;8.23;;;6.30;;
11386;SDS011;5748;53.102;8.456;2022-12-18T01:47:28;9.03;;;6.37;;
11386;SDS011;5748;53.102;8.456;2022-12-18T01:50:00;9.10;;;7.07;;
11386;SDS011;5748;53.102;8.456;2022-12-18T01:52:42;9.83;;;7.00;;
11386;SDS011;5748;53.102;8.456;2022-12-18T01:55:13;9.53;;;6.30;;
11386;SDS011;5748;53.102;8.456;2022-12-18T01:57:44;10.77;;;7.47;;
11386;SDS011;5748;53.102;8.456;2022-12-18T02:00:13;10.60;;;7.03;;
11386;SDS011;5748;53.102;8.456;2022-12-18T02:02:45;9.17;;;6.47;;
11386;SDS011;5748;53.102;8.456;2022-12-18T02:05:13;10.37;;;6.90;;
11386;SDS011;5748;53.102;8.456;2022-12-18T02:07:49;9.30;;;6.67;;
11386;SDS011;5748;53.102;8.456;2022-12-18T02:10:30;9.80;;;6.93;;
11386;SDS011;5748;53.102;8.456;2022-12-18T02:13:03;9.17;;;6.33;;
11386;SDS011;5748;53.102;8.456;2022-12-18T02:15:40;8.80;;;6.37;;
11386;SDS011;5748;53.102;8.456;2022-12-18T02:18:16;8.20;;;6.30;;
11386;SDS011;5748;53.102;8.456;2022-12-18T02:20:47;8.37;;;6.03;;
11386;SDS011;5748;53.102;8.456;2022-12-18T02:23:30;8.90;;;6.50;;
11386;SDS011;5748;53.102;8.456;2022-12-18T02:26:22;9.60;;;6.43;;
11386;SDS011;5748;53.102;8.456;2022-12-18T02:28:54;8.40;;;6.43;;
11386;SDS011;5748;53.102;8.456;2022-12-18T02:31:28;8.13;;;6.47;;
11386;SDS011;5748;53.102;8.456;2022-12-18T02:34:02;7.90;;;5.87;;
11386;SDS011;5748;53.102;8.456;2022-12-18T02:36:32;7.90;;;6.37;;
11386;SDS011;5748;53.102;8.456;2022-12-18T02:39:01;8.53;;;6.03;;
11386;SDS011;5748;53.102;8.456;2022-12-18T02:41:30;8.47;;;6.40;;
11386;SDS011;5748;53.102;8.456;2022-12-18T02:43:58;7.43;;;5.97;;
11386;SDS011;5748;53.102;8.456;2022-12-18T02:46:29;8.60;;;5.90;;
11386;SDS011;5748;53.102;8.456;2022-12-18T02:49:02;8.73;;;6.33;;
11386;SDS011;5748;53.102;8.456;2022-12-18T02:51:47;7.97;;;6.20;;
11386;SDS011;5748;53.102;8.456;2022-12-18T02:54:21;8.43;;;6.23;;
11386;SDS011;5748;53.102;8.456;2022-12-18T02:57:05;8.07;;;6.33;;
11386;SDS011;5748;53.102;8.456;2022-12-18T02:59:41;7.83;;;6.00;;
11386;SDS011;5748;53.102;8.456;2022-12-18T03:02:18;8.60;;;6.33;;
11386;SDS011;5748;53.102;8.456;2022-12-18T03:04:52;8.07;;;6.23;;
11386;SDS011;5748;53.102;8.456;2022-12-18T03:07:30;7.17;;;5.70;;
11386;SDS011;5748;53.102;8.456;2022-12-18T03:10:04;8.57;;;6.00;;
11386;SDS011;5748;53.102;8.456;2022-12-18T03:12:37;7.53;;;6.20;;
11386;SDS011;5748;53.102;8.456;2022-12-18T03:15:09;6.53;;;5.37;;
11386;SDS011;5748;53.102;8.456;2022-12-18T03:17:43;9.03;;;6.10;;
11386;SDS011;5748;53.102;8.456;2022-12-18T03:20:14;7.97;;;6.10;;
11386;SDS011;5748;53.102;8.456;2022-12-18T03:22:46;7.50;;;5.77;;
11386;SDS011;5748;53.102;8.456;2022-12-18T03:25:18;8.40;;;6.10;;
11386;SDS011;5748;53.102;8.456;2022-12-18T03:27:48;7.47;;;5.70;;
11386;SDS011;5748;53.102;8.456;2022-12-18T03:30:18;8.77;;;6.07;;
11386;SDS011;5748;53.102;8.456;2022-12-18T03:32:46;8.10;;;6.07;;
11386;SDS011;5748;53.102;8.456;2022-12-18T03:35:19;7.70;;;5.43;;
11386;SDS011;5748;53.102;8.456;2022-12-18T03:37:52;8.13;;;5.93;;
11386;SDS011;5748;53.102;8.456;2022-12-18T03:40:19;7.87;;;5.80;;
11386;SDS011;5748;53.102;8.456;2022-12-18T03:42:56;7.30;;;5.73;;
11386;SDS011;5748;53.102;8.456;2022-12-18T03:45:30;7.23;;;5.73;;
11386;SDS011;5748;53.102;8.456;2022-12-18T03:48:02;7.57;;;5.77;;
11386;SDS011;5748;53.102;8.456;2022-12-18T03:50:36;7.47;;;5.80;;
11386;SDS011;5748;53.102;8.456;2022-12-18T03:53:17;6.90;;;5.37;;
11386;SDS011;5748;53.102;8.456;2022-12-18T03:55:52;7.67;;;5.17;;
11386;SDS011;5748;53.102;8.456;2022-12-18T03:58:23;7.33;;;5.40;;
11386;SDS011;5748;53.102;8.456;2022-12-18T04:00:52;8.00;;;5.77;;
11386;SDS011;5748;53.102;8.456;2022-12-18T04:03:24;6.73;;;5.13;;
11386;SDS011;5748;53.102;8.456;2022-12-18T04:05:54;6.30;;;5.03;;
11386;SDS011;5748;53.102;8.456;2022-12-18T04:08:23;5.70;;;4.83;;
11386;SDS011;5748;53.102;8.456;2022-12-18T04:10:51;6.20;;;5.30;;
11386;SDS011;5748;53.102;8.456;2022-12-18T04:13:22;6.97;;;5.37;;
11386;SDS011;5748;53.102;8.456;2022-12-18T04:15:50;7.47;;;5.70;;
11386;SDS011;5748;53.102;8.456;2022-12-18T04:18:17;6.50;;;5.33;;
11386;SDS011;5748;53.102;8.456;2022-12-18T04:20:44;6.17;;;4.73;;
11386;SDS011;5748;53.102;8.456;2022-12-18T04:23:12;8.77;;;5.80;;
11386;SDS011;5748;53.102;8.456;2022-12-18T04:25:39;6.40;;;5.10;;
11386;SDS011;5748;53.102;8.456;2022-12-18T04:28:06;5.87;;;4.93;;
11386;SDS011;5748;53.102;8.456;2022-12-18T04:30:34;6.37;;;5.03;;
11386;SDS011;5748;53.102;8.456;2022-12-18T04:33:01;6.10;;;5.20;;
11386;SDS011;5748;53.102;8.456;2022-12-18T04:35:28;6.97;;;5.00;;
11386;SDS011;5748;53.102;8.456;2022-12-18T04:37:56;6.83;;;5.23;;
11386;SDS011;5748;53.102;8.456;2022-12-18T04:40:22;6.50;;;5.10;;
11386;SDS011;5748;53.102;8.456;2022-12-18T04:42:49;6.67;;;5.03;;
11386;SDS011;5748;53.102;8.456;2022-12-18T04:45:16;6.17;;;4.87;;
11386;SDS011;5748;53.102;8.456;2022-12-18T04:47:45;5.93;;;5.00;;
11386;SDS011;5748;53.102;8.456;2022-12-18T04:50:12;6.17;;;4.80;;
11386;SDS011;5748;53.102;8.456;2022-12-18T04:52:39;6.67;;;4.93;;
11386;SDS011;5748;53.102;8.456;2022-12-18T04:55:06;5.77;;;4.60;;
11386;SDS011;5748;53.102;8.456;2022-12-18T04:57:35;7.70;;;5.40;;
11386;SDS011;5748;53.102;8.456;2022-12-18T05:00:03;6.27;;;4.87;;
11386;SDS011;5748;53.102;8.456;2022-12-18T05:02:31;6.80;;;5.10;;
11386;SDS011;5748;53.102;8.456;2022-12-18T05:05:00;6.33;;;4.80;;
11386;SDS011;5748;53.102;8.456;2022-12-18T05:07:27;6.20;;;5.00;;
11386;SDS011;5748;53.102;8.456;2022-12-18T05:12:25;6.17;;;4.90;;
11386;SDS011;5748;53.102;8.456;2022-12-18T05:14:52;6.30;;;4.60;;
11386;SDS011;5748;53.102;8.456;2022-12-18T05:17:19;5.90;;;4.60;;
11386;SDS011;5748;53.102;8.456;2022-12-18T05:19:46;6.03;;;4.53;;
11386;SDS011;5748;53.102;8.456;2022-12-18T05:22:14;6.43;;;5.13;;
11386;SDS011;5748;53.102;8.456;2022-12-18T05:24:42;5.20;;;4.53;;
11386;SDS011;5748;53.102;8.456;2022-12-18T05:27:09;5.20;;;4.33;;
11386;SDS011;5748;53.102;8.456;2022-12-18T05:29:36;6.13;;;4.43;;
11386;SDS011;5748;53.102;8.456;2022-12-18T05:32:04;5.63;;;4.37;;
11386;SDS011;5748;53.102;8.456;2022-12-18T05:34:31;6.17;;;4.60;;
11386;SDS011;5748;53.102;8.456;2022-12-18T05:36:59;5.53;;;4.47;;
11386;SDS011;5748;53.102;8.456;2022-12-18T05:39:27;5.73;;;4.50;;
11386;SDS011;5748;53.102;8.456;2022-12-18T05:41:55;4.90;;;4.00;;
11386;SDS011;5748;53.102;8.456;2022-12-18T05:44:23;5.63;;;4.50;;
11386;SDS011;5748;53.102;8.456;2022-12-18T05:46:50;5.77;;;4.57;;
11386;SDS011;5748;53.102;8.456;2022-12-18T05:49:17;4.77;;;4.10;;
11386;SDS011;5748;53.102;8.456;2022-12-18T05:51:44;4.93;;;4.07;;
11386;SDS011;5748;53.102;8.456;2022-12-18T05:54:11;5.93;;;4.23;;
11386;SDS011;5748;53.102;8.456;2022-12-18T05:56:39;5.17;;;4.23;;
11386;SDS011;5748;53.102;8.456;2022-12-18T05:59:06;5.17;;;4.27;;
11386;SDS011;5748;53.102;8.456;2022-12-18T06:01:34;6.10;;;4.37;;
11386;SDS011;5748;53.102;8.456;2022-12-18T06:04:01;5.53;;;4.30;;
11386;SDS011;5748;53.102;8.456;2022-12-18T06:06:28;6.23;;;4.00;;
11386;SDS011;5748;53.102;8.456;2022-12-18T06:08:56;5.33;;;4.43;;
11386;SDS011;5748;53.102;8.456;2022-12-18T06:11:23;4.90;;;4.03;;
11386;SDS011;5748;53.102;8.456;2022-12-18T06:13:53;4.93;;;4.00;;
11386;SDS011;5748;53.102;8.456;2022-12-18T06:16:22;4.90;;;3.83;;
11386;SDS011;5748;53.102;8.456;2022-12-18T06:18:52;5.60;;;4.10;;
11386;SDS011;5748;53.102;8.456;2022-12-18T06:21:19;5.00;;;4.33;;
11386;SDS011;5748;53.102;8.456;2022-12-18T06:23:46;5.23;;;4.30;;
11386;SDS011;5748;53.102;8.456;2022-12-18T06:26:13;5.13;;;4.13;;
11386;SDS011;5748;53.102;8.456;2022-12-18T06:31:32;5.87;;;3.97;;
11386;SDS011;5748;53.102;8.456;2022-12-18T06:34:01;5.40;;;4.00;;
11386;SDS011;5748;53.102;8.456;2022-12-18T06:36:29;4.30;;;3.63;;
11386;SDS011;5748;53.102;8.456;2022-12-18T06:38:56;4.70;;;3.77;;
11386;SDS011;5748;53.102;8.456;2022-12-18T06:41:24;5.07;;;3.80;;
11386;SDS011;5748;53.102;8.456;2022-12-18T06:43:51;4.30;;;3.60;;
11386;SDS011;5748;53.102;8.456;2022-12-18T06:46:20;5.00;;;3.83;;
11386;SDS011;5748;53.102;8.456;2022-12-18T06:48:49;4.73;;;3.47;;
11386;SDS011;5748;53.102;8.456;2022-12-18T06:51:17;4.83;;;4.00;;
11386;SDS011;5748;53.102;8.456;2022-12-18T06:53:45;4.63;;;3.80;;
11386;SDS011;5748;53.102;8.456;2022-12-18T06:56:12;5.50;;;3.93;;
11386;SDS011;5748;53.102;8.456;2022-12-18T06:58:40;4.60;;;3.73;;
11386;SDS011;5748;53.102;8.456;2022-12-18T07:01:08;4.20;;;3.53;;
11386;SDS011;5748;53.102;8.456;2022-12-18T07:03:52;4.70;;;3.87;;
11386;SDS011;5748;53.102;8.456;2022-12-18T07:06:21;4.57;;;3.80;;
11386;SDS011;5748;53.102;8.456;2022-12-18T07:08:49;4.37;;;3.60;;
11386;SDS011;5748;53.102;8.456;2022-12-18T07:11:18;4.50;;;3.67;;
11386;SDS011;5748;53.102;8.456;2022-12-18T07:13:45;4.87;;;3.90;;
11386;SDS011;5748;53.102;8.456;2022-12-18T07:16:14;4.90;;;3.67;;
11386;SDS011;5748;53.102;8.456;2022-12-18T07:18:43;4.10;;;3.33;;
11386;SDS011;5748;53.102;8.456;2022-12-18T07:21:16;4.33;;;3.63;;
11386;SDS011;5748;53.102;8.456;2022-12-18T07:23:44;4.30;;;3.50;;
11386;SDS011;5748;53.102;8.456;2022-12-18T07:26:13;4.87;;;3.80;;
11386;SDS011;5748;53.102;8.456;2022-12-18T07:28:42;5.47;;;3.60;;
11386;SDS011;5748;53.102;8.456;2022-12-18T07:31:10;4.53;;;3.70;;
11386;SDS011;5748;53.102;8.456;2022-12-18T07:33:39;4.50;;;3.37;;
11386;SDS011;5748;53.102;8.456;2022-12-18T07:36:07;4.53;;;3.57;;
11386;SDS011;5748;53.102;8.456;2022-12-18T07:38:46;3.90;;;3.40;;
11386;SDS011;5748;53.102;8.456;2022-12-18T07:41:14;5.03;;;3.80;;
11386;SDS011;5748;53.102;8.456;2022-12-18T07:43:41;4.63;;;3.70;;
11386;SDS011;5748;53.102;8.456;2022-12-18T07:46:08;4.63;;;3.73;;
11386;SDS011;5748;53.102;8.456;2022-12-18T07:48:38;5.57;;;4.00;;
11386;SDS011;5748;53.102;8.456;2022-12-18T07:51:06;4.70;;;4.20;;
11386;SDS011;5748;53.102;8.456;2022-12-18T07:53:34;6.17;;;4.23;;
11386;SDS011;5748;53.102;8.456;2022-12-18T07:56:04;4.97;;;3.97;;
11386;SDS011;5748;53.102;8.456;2022-12-18T07:58:34;4.83;;;3.87;;
11386;SDS011;5748;53.102;8.456;2022-12-18T08:01:02;4.77;;;3.90;;
11386;SDS011;5748;53.102;8.456;2022-12-18T08:03:30;4.67;;;3.70;;
11386;SDS011;5748;53.102;8.456;2022-12-18T08:05:58;5.13;;;4.03;;
11386;SDS011;5748;53.102;8.456;2022-12-18T08:08:26;4.50;;;3.90;;
11386;SDS011;5748;53.102;8.456;2022-12-18T08:10:54;4.27;;;3.30;;
11386;SDS011;5748;53.102;8.456;2022-12-18T08:13:23;6.27;;;4.43;;
11386;SDS011;5748;53.102;8.456;2022-12-18T08:15:57;4.63;;;4.00;;
11386;SDS011;5748;53.102;8.456;2022-12-18T08:18:26;4.63;;;3.97;;
11386;SDS011;5748;53.102;8.456;2022-12-18T08:20:54;5.17;;;3.80;;
11386;SDS011;5748;53.102;8.456;2022-12-18T08:23:21;4.57;;;3.90;;
11386;SDS011;5748;53.102;8.456;2022-12-18T08:25:48;5.00;;;4.10;;
11386;SDS011;5748;53.102;8.456;2022-12-18T08:28:16;4.13;;;3.67;;
11386;SDS011;5748;53.102;8.456;2022-12-18T08:30:45;4.10;;;3.40;;
11386;SDS011;5748;53.102;8.456;2022-12-18T08:33:12;4.10;;;3.10;;
11386;SDS011;5748;53.102;8.456;2022-12-18T08:35:39;4.20;;;3.67;;
11386;SDS011;5748;53.102;8.456;2022-12-18T08:38:06;3.93;;;3.50;;
11386;SDS011;5748;53.102;8.456;2022-12-18T08:40:33;4.30;;;3.53;;
11386;SDS011;5748;53.102;8.456;2022-12-18T08:42:59;5.37;;;3.73;;
11386;SDS011;5748;53.102;8.456;2022-12-18T08:45:46;5.00;;;3.57;;
11386;SDS011;5748;53.102;8.456;2022-12-18T08:48:13;4.70;;;4.07;;
11386;SDS011;5748;53.102;8.456;2022-12-18T08:50:40;4.80;;;3.53;;
11386;SDS011;5748;53.102;8.456;2022-12-18T08:53:07;3.50;;;3.17;;
11386;SDS011;5748;53.102;8.456;2022-12-18T08:55:34;4.80;;;3.80;;
11386;SDS011;5748;53.102;8.456;2022-12-18T08:58:01;5.17;;;4.03;;
11386;SDS011;5748;53.102;8.456;2022-12-18T09:00:28;4.30;;;3.77;;
11386;SDS011;5748;53.102;8.456;2022-12-18T09:02:56;3.90;;;3.50;;
11386;SDS011;5748;53.102;8.456;2022-12-18T09:05:23;4.97;;;4.07;;
11386;SDS011;5748;53.102;8.456;2022-12-18T09:07:50;4.43;;;3.87;;
11386;SDS011;5748;53.102;8.456;2022-12-18T09:10:17;4.10;;;3.70;;
11386;SDS011;5748;53.102;8.456;2022-12-18T09:12:45;4.87;;;4.13;;
11386;SDS011;5748;53.102;8.456;2022-12-18T09:15:18;5.13;;;4.30;;
11386;SDS011;5748;53.102;8.456;2022-12-18T09:17:45;5.50;;;4.07;;
11386;SDS011;5748;53.102;8.456;2022-12-18T09:20:14;4.73;;;3.73;;
11386;SDS011;5748;53.102;8.456;2022-12-18T09:22:41;4.00;;;3.60;;
11386;SDS011;5748;53.102;8.456;2022-12-18T09:25:09;4.60;;;4.10;;
11386;SDS011;5748;53.102;8.456;2022-12-18T09:27:36;4.77;;;4.00;;
11386;SDS011;5748;53.102;8.456;2022-12-18T09:30:04;7.40;;;6.70;;
11386;SDS011;5748;53.102;8.456;2022-12-18T09:32:33;6.17;;;5.17;;
11386;SDS011;5748;53.102;8.456;2022-12-18T09:35:00;6.00;;;5.40;;
11386;SDS011;5748;53.102;8.456;2022-12-18T09:37:28;6.20;;;5.43;;
11386;SDS011;5748;53.102;8.456;2022-12-18T09:39:56;5.60;;;5.00;;
11386;SDS011;5748;53.102;8.456;2022-12-18T09:42:23;5.27;;;4.50;;
11386;SDS011;5748;53.102;8.456;2022-12-18T09:44:52;5.37;;;4.30;;
11386;SDS011;5748;53.102;8.456;2022-12-18T09:47:21;4.87;;;4.00;;
11386;SDS011;5748;53.102;8.456;2022-12-18T09:49:54;5.60;;;4.50;;
11386;SDS011;5748;53.102;8.456;2022-12-18T09:52:26;4.67;;;4.20;;
11386;SDS011;5748;53.102;8.456;2022-12-18T09:55:00;4.80;;;4.00;;
11386;SDS011;5748;53.102;8.456;2022-12-18T09:57:33;4.53;;;3.87;;
11386;SDS011;5748;53.102;8.456;2022-12-18T10:00:08;5.10;;;3.83;;
11386;SDS011;5748;53.102;8.456;2022-12-18T10:02:43;4.40;;;3.90;;
11386;SDS011;5748;53.102;8.456;2022-12-18T10:05:11;4.70;;;3.83;;
11386;SDS011;5748;53.102;8.456;2022-12-18T10:07:46;5.07;;;4.10;;
11386;SDS011;5748;53.102;8.456;2022-12-18T10:10:25;4.60;;;4.20;;
11386;SDS011;5748;53.102;8.456;2022-12-18T10:13:02;5.07;;;4.57;;
11386;SDS011;5748;53.102;8.456;2022-12-18T10:15:45;5.33;;;4.50;;
11386;SDS011;5748;53.102;8.456;2022-12-18T10:18:26;5.97;;;5.30;;
11386;SDS011;5748;53.102;8.456;2022-12-18T10:24:19;5.70;;;4.50;;
11386;SDS011;5748;53.102;8.456;2022-12-18T10:26:58;5.07;;;4.47;;
11386;SDS011;5748;53.102;8.456;2022-12-18T10:29:37;6.80;;;4.60;;
11386;SDS011;5748;53.102;8.456;2022-12-18T10:32:05;5.17;;;4.20;;
11386;SDS011;5748;53.102;8.456;2022-12-18T10:34:33;4.53;;;3.73;;
11386;SDS011;5748;53.102;8.456;2022-12-18T10:37:00;4.80;;;4.27;;
11386;SDS011;5748;53.102;8.456;2022-12-18T10:39:37;4.60;;;4.20;;
11386;SDS011;5748;53.102;8.456;2022-12-18T10:42:10;4.77;;;4.07;;
11386;SDS011;5748;53.102;8.456;2022-12-18T10:44:43;4.53;;;3.90;;
11386;SDS011;5748;53.102;8.456;2022-12-18T10:47:11;4.33;;;3.87;;
11386;SDS011;5748;53.102;8.456;2022-12-18T10:49:42;5.63;;;4.43;;
11386;SDS011;5748;53.102;8.456;2022-12-18T10:52:16;5.57;;;4.50;;
11386;SDS011;5748;53.102;8.456;2022-12-18T10:54:48;6.03;;;5.07;;
11386;SDS011;5748;53.102;8.456;2022-12-18T10:57:33;5.57;;;4.93;;
11386;SDS011;5748;53.102;8.456;2022-12-18T11:02:56;5.30;;;4.80;;
11386;SDS011;5748;53.102;8.456;2022-12-18T11:05:25;5.90;;;5.10;;
11386;SDS011;5748;53.102;8.456;2022-12-18T11:07:56;6.40;;;5.30;;
11386;SDS011;5748;53.102;8.456;2022-12-18T11:10:28;5.57;;;4.87;;
11386;SDS011;5748;53.102;8.456;2022-12-18T11:13:09;5.80;;;5.10;;
11386;SDS011;5748;53.102;8.456;2022-12-18T11:15:44;6.27;;;5.33;;
11386;SDS011;5748;53.102;8.456;2022-12-18T11:18:16;5.33;;;4.50;;
11386;SDS011;5748;53.102;8.456;2022-12-18T11:20:50;5.63;;;4.60;;
11386;SDS011;5748;53.102;8.456;2022-12-18T11:23:19;5.07;;;4.40;;
11386;SDS011;5748;53.102;8.456;2022-12-18T11:25:54;5.10;;;4.37;;
11386;SDS011;5748;53.102;8.456;2022-12-18T11:28:27;5.10;;;4.50;;
11386;SDS011;5748;53.102;8.456;2022-12-18T11:31:21;5.50;;;4.93;;
11386;SDS011;5748;53.102;8.456;2022-12-18T11:33:52;4.97;;;4.30;;
11386;SDS011;5748;53.102;8.456;2022-12-18T11:36:25;5.00;;;4.23;;
11386;SDS011;5748;53.102;8.456;2022-12-18T11:39:01;5.57;;;4.60;;
11386;SDS011;5748;53.102;8.456;2022-12-18T11:41:39;5.17;;;4.60;;
11386;SDS011;5748;53.102;8.456;2022-12-18T11:44:38;5.37;;;4.47;;
11386;SDS011;5748;53.102;8.456;2022-12-18T11:47:15;6.33;;;4.90;;
11386;SDS011;5748;53.102;8.456;2022-12-18T11:49:55;5.67;;;4.40;;
11386;SDS011;5748;53.102;8.456;2022-12-18T11:52:28;5.90;;;5.13;;
11386;SDS011;5748;53.102;8.456;2022-12-18T11:55:04;5.63;;;4.50;;
11386;SDS011;5748;53.102;8.456;2022-12-18T11:57:40;7.40;;;4.47;;
11386;SDS011;5748;53.102;8.456;2022-12-18T12:00:22;5.33;;;4.47;;
11386;SDS011;5748;53.102;8.456;2022-12-18T12:05:56;4.57;;;4.00;;
11386;SDS011;5748;53.102;8.456;2022-12-18T12:08:42;4.73;;;3.83;;
11386;SDS011;5748;53.102;8.456;2022-12-18T12:11:26;5.03;;;4.00;;
11386;SDS011;5748;53.102;8.456;2022-12-18T12:14:08;5.00;;;4.00;;
11386;SDS011;5748;53.102;8.456;2022-12-18T12:17:01;4.80;;;4.10;;
11386;SDS011;5748;53.102;8.456;2022-12-18T12:19:39;5.60;;;4.30;;
11386;SDS011;5748;53.102;8.456;2022-12-18T12:22:17;5.73;;;4.70;;
11386;SDS011;5748;53.102;8.456;2022-12-18T12:24:57;4.40;;;3.77;;
11386;SDS011;5748;53.102;8.456;2022-12-18T12:27:42;4.77;;;4.10;;
11386;SDS011;5748;53.102;8.456;2022-12-18T12:30:26;5.73;;;4.00;;
11386;SDS011;5748;53.102;8.456;2022-12-18T12:33:05;4.57;;;4.10;;
11386;SDS011;5748;53.102;8.456;2022-12-18T12:35:46;5.53;;;4.60;;
11386;SDS011;5748;53.102;8.456;2022-12-18T12:38:25;6.60;;;4.70;;
11386;SDS011;5748;53.102;8.456;2022-12-18T12:40:58;6.47;;;4.90;;
11386;SDS011;5748;53.102;8.456;2022-12-18T12:43:33;4.90;;;4.40;;
11386;SDS011;5748;53.102;8.456;2022-12-18T12:46:07;5.03;;;4.47;;
11386;SDS011;5748;53.102;8.456;2022-12-18T12:48:38;4.83;;;4.23;;
11386;SDS011;5748;53.102;8.456;2022-12-18T12:51:13;5.33;;;4.43;;
11386;SDS011;5748;53.102;8.456;2022-12-18T12:53:44;6.10;;;4.33;;
11386;SDS011;5748;53.102;8.456;2022-12-18T12:56:13;5.70;;;4.70;;
11386;SDS011;5748;53.102;8.456;2022-12-18T12:58:45;5.20;;;4.43;;
11386;SDS011;5748;53.102;8.456;2022-12-18T13:01:24;5.73;;;4.43;;
11386;SDS011;5748;53.102;8.456;2022-12-18T13:04:02;5.10;;;3.90;;
11386;SDS011;5748;53.102;8.456;2022-12-18T13:06:42;5.90;;;4.70;;
11386;SDS011;5748;53.102;8.456;2022-12-18T13:09:14;6.60;;;5.37;;
11386;SDS011;5748;53.102;8.456;2022-12-18T13:11:42;6.03;;;4.60;;
11386;SDS011;5748;53.102;8.456;2022-12-18T13:14:40;5.17;;;4.33;;
11386;SDS011;5748;53.102;8.456;2022-12-18T13:20:07;5.90;;;4.90;;
11386;SDS011;5748;53.102;8.456;2022-12-18T13:22:39;6.93;;;5.47;;
11386;SDS011;5748;53.102;8.456;2022-12-18T13:25:29;5.73;;;5.13;;
11386;SDS011;5748;53.102;8.456;2022-12-18T13:28:01;6.77;;;5.00;;
11386;SDS011;5748;53.102;8.456;2022-12-18T13:30:42;5.87;;;4.97;;
11386;SDS011;5748;53.102;8.456;2022-12-18T13:33:38;5.83;;;4.90;;
11386;SDS011;5748;53.102;8.456;2022-12-18T13:36:27;5.83;;;4.83;;
11386;SDS011;5748;53.102;8.456;2022-12-18T13:39:11;5.67;;;4.40;;
11386;SDS011;5748;53.102;8.456;2022-12-18T13:45:42;5.97;;;4.70;;
11386;SDS011;5748;53.102;8.456;2022-12-18T13:48:15;4.77;;;4.27;;
11386;SDS011;5748;53.102;8.456;2022-12-18T13:50:50;5.87;;;4.60;;
11386;SDS011;5748;53.102;8.456;2022-12-18T13:53:24;5.43;;;4.80;;
11386;SDS011;5748;53.102;8.456;2022-12-18T13:55:56;5.97;;;5.07;;
11386;SDS011;5748;53.102;8.456;2022-12-18T13:58:24;5.10;;;4.53;;
11386;SDS011;5748;53.102;8.456;2022-12-18T14:00:51;6.10;;;5.23;;
11386;SDS011;5748;53.102;8.456;2022-12-18T14:03:20;6.00;;;4.90;;
11386;SDS011;5748;53.102;8.456;2022-12-18T14:05:56;5.10;;;4.60;;
11386;SDS011;5748;53.102;8.456;2022-12-18T14:08:29;5.00;;;4.50;;
11386;SDS011;5748;53.102;8.456;2022-12-18T14:11:03;5.67;;;4.60;;
11386;SDS011;5748;53.102;8.456;2022-12-18T14:13:33;5.63;;;5.00;;
11386;SDS011;5748;53.102;8.456;2022-12-18T14:16:04;5.80;;;4.50;;
11386;SDS011;5748;53.102;8.456;2022-12-18T14:18:36;6.60;;;5.13;;
11386;SDS011;5748;53.102;8.456;2022-12-18T14:21:17;5.53;;;5.00;;
11386;SDS011;5748;53.102;8.456;2022-12-18T14:23:48;5.00;;;4.37;;
11386;SDS011;5748;53.102;8.456;2022-12-18T14:26:20;5.13;;;4.47;;
11386;SDS011;5748;53.102;8.456;2022-12-18T14:28:52;5.00;;;4.50;;
11386;SDS011;5748;53.102;8.456;2022-12-18T14:31:20;5.10;;;4.60;;
11386;SDS011;5748;53.102;8.456;2022-12-18T14:33:50;5.30;;;4.17;;
11386;SDS011;5748;53.102;8.456;2022-12-18T14:36:19;6.87;;;4.60;;
11386;SDS011;5748;53.102;8.456;2022-12-18T14:38:49;5.80;;;4.83;;
11386;SDS011;5748;53.102;8.456;2022-12-18T14:41:18;5.77;;;4.30;;
11386;SDS011;5748;53.102;8.456;2022-12-18T14:43:47;4.83;;;4.33;;
11386;SDS011;5748;53.102;8.456;2022-12-18T14:46:27;5.30;;;4.80;;
11386;SDS011;5748;53.102;8.456;2022-12-18T14:49:01;5.57;;;4.77;;
11386;SDS011;5748;53.102;8.456;2022-12-18T14:51:32;5.03;;;4.50;;
11386;SDS011;5748;53.102;8.456;2022-12-18T14:54:00;4.40;;;4.00;;
11386;SDS011;5748;53.102;8.456;2022-12-18T14:56:33;4.97;;;4.47;;
11386;SDS011;5748;53.102;8.456;2022-12-18T14:59:03;5.90;;;4.17;;
11386;SDS011;5748;53.102;8.456;2022-12-18T15:01:33;5.17;;;4.40;;
11386;SDS011;5748;53.102;8.456;2022-12-18T15:04:03;5.60;;;4.97;;
11386;SDS011;5748;53.102;8.456;2022-12-18T15:06:47;4.83;;;4.33;;
11386;SDS011;5748;53.102;8.456;2022-12-18T15:09:20;5.50;;;4.80;;
11386;SDS011;5748;53.102;8.456;2022-12-18T15:11:54;4.60;;;4.20;;
11386;SDS011;5748;53.102;8.456;2022-12-18T15:14:24;5.00;;;4.50;;
11386;SDS011;5748;53.102;8.456;2022-12-18T15:17:01;4.73;;;4.20;;
11386;SDS011;5748;53.102;8.456;2022-12-18T15:19:33;5.70;;;4.87;;
11386;SDS011;5748;53.102;8.456;2022-12-18T15:22:16;6.03;;;5.07;;
11386;SDS011;5748;53.102;8.456;2022-12-18T15:24:50;6.77;;;5.47;;
11386;SDS011;5748;53.102;8.456;2022-12-18T15:27:22;5.00;;;4.50;;
11386;SDS011;5748;53.102;8.456;2022-12-18T15:30:11;5.43;;;4.80;;
11386;SDS011;5748;53.102;8.456;2022-12-18T15:32:47;5.23;;;4.73;;
11386;SDS011;5748;53.102;8.456;2022-12-18T15:35:16;5.50;;;4.80;;
11386;SDS011;5748;53.102;8.456;2022-12-18T15:37:47;5.07;;;4.20;;
11386;SDS011;5748;53.102;8.456;2022-12-18T15:40:16;6.37;;;5.47;;
11386;SDS011;5748;53.102;8.456;2022-12-18T15:42:45;6.83;;;5.47;;
11386;SDS011;5748;53.102;8.456;2022-12-18T15:45:30;5.87;;;5.27;;
11386;SDS011;5748;53.102;8.456;2022-12-18T15:47:58;5.37;;;4.87;;
11386;SDS011;5748;53.102;8.456;2022-12-18T15:50:25;5.90;;;4.87;;
11386;SDS011;5748;53.102;8.456;2022-12-18T15:52:54;5.50;;;4.70;;
11386;SDS011;5748;53.102;8.456;2022-12-18T15:55:21;4.33;;;3.93;;